createdAt,value
2022-10-26T00:00:11.833Z,68.64
2022-10-26T00:02:38.367Z,68.44
2022-10-26T00:05:05.660Z,68.83
2022-10-26T00:07:32.043Z,68.76
2022-10-26T00:09:58.390Z,68.46
2022-10-26T00:12:25.371Z,68.45
2022-10-26T00:14:51.699Z,68.35
2022-10-26T00:17:18.033Z,68.55
2022-10-26T00:19:44.452Z,68.26
2022-10-26T00:22:10.787Z,68.35
2022-10-26T00:24:37.221Z,68.31
2022-10-26T00:27:03.655Z,68.36
2022-10-26T00:29:30.011Z,68.10
2022-10-26T00:31:56.368Z,68.03
2022-10-26T00:34:25.730Z,67.90
2022-10-26T00:36:52.082Z,68.22
2022-10-26T00:39:18.461Z,68.14
2022-10-26T00:41:44.787Z,68.07
2022-10-26T00:44:48.356Z,67.90
2022-10-26T00:47:28.289Z,67.98
2022-10-26T00:49:56.734Z,68.29
2022-10-26T00:52:23.908Z,68.38
2022-10-26T00:54:51.457Z,68.42
2022-10-26T00:57:18.682Z,68.39
2022-10-26T00:59:46.267Z,68.38
2022-10-26T01:02:13.223Z,68.52
2022-10-26T01:04:40.183Z,68.27
2022-10-26T01:07:08.398Z,68.58
2022-10-26T01:09:36.021Z,68.59
2022-10-26T01:12:02.352Z,68.39
2022-10-26T01:14:29.031Z,68.59
2022-10-26T01:17:12.248Z,68.20
2022-10-26T01:19:57.442Z,68.33
2022-10-26T01:22:32.913Z,68.25
2022-10-26T01:25:08.870Z,68.21
2022-10-26T01:27:43.129Z,68.15
2022-10-26T01:30:43.999Z,67.85
2022-10-26T01:33:29.537Z,67.94
2022-10-26T01:36:16.370Z,67.96
2022-10-26T01:38:58.365Z,68.10
2022-10-26T01:41:32.979Z,68.24
2022-10-26T01:44:04.118Z,68.26
2022-10-26T01:46:37.595Z,68.29
2022-10-26T01:49:09.066Z,68.50
2022-10-26T01:51:36.268Z,68.78
2022-10-26T01:54:02.614Z,68.87
2022-10-26T01:56:32.049Z,68.87
2022-10-26T01:59:17.868Z,68.67
2022-10-26T02:01:53.303Z,68.65
2022-10-26T02:04:58.330Z,68.76
2022-10-26T02:07:40.112Z,68.60
2022-10-26T02:10:22.318Z,68.67
2022-10-26T02:12:51.654Z,68.88
2022-10-26T02:15:22.732Z,68.60
2022-10-26T02:18:30.023Z,68.58
2022-10-26T02:20:59.280Z,68.33
2022-10-26T02:23:27.454Z,68.31
2022-10-26T02:25:58.690Z,68.54
2022-10-26T02:28:33.717Z,68.25
2022-10-26T02:31:02.570Z,68.34
2022-10-26T02:33:33.247Z,68.25
2022-10-26T02:36:02.355Z,68.22
2022-10-26T02:38:30.864Z,68.21
2022-10-26T02:40:59.096Z,68.32
2022-10-26T02:43:28.158Z,68.07
2022-10-26T02:45:59.642Z,67.86
2022-10-26T02:48:26.086Z,67.88
2022-10-26T02:51:10.733Z,67.86
2022-10-26T02:53:55.142Z,67.67
2022-10-26T02:56:28.008Z,67.50
2022-10-26T02:58:59.504Z,67.36
2022-10-26T03:01:27.759Z,67.48
2022-10-26T03:03:57.758Z,67.31
2022-10-26T03:06:25.518Z,67.25
2022-10-26T03:08:52.493Z,67.07
2022-10-26T03:11:19.169Z,67.09
2022-10-26T03:13:45.555Z,67.09
2022-10-26T03:16:12.066Z,66.87
2022-10-26T03:18:38.394Z,66.69
2022-10-26T03:21:05.175Z,66.72
2022-10-26T03:23:31.639Z,66.66
2022-10-26T03:25:59.161Z,66.51
2022-10-26T03:28:25.916Z,66.25
2022-10-26T03:30:52.301Z,66.69
2022-10-26T03:33:18.934Z,66.60
2022-10-26T03:35:45.458Z,66.49
2022-10-26T03:38:15.792Z,66.60
2022-10-26T03:40:42.642Z,66.59
2022-10-26T03:43:08.977Z,66.55
2022-10-26T03:45:35.330Z,66.80
2022-10-26T03:48:01.711Z,66.66
2022-10-26T03:50:28.083Z,66.81
2022-10-26T03:52:54.417Z,67.12
2022-10-26T03:55:20.843Z,67.17
2022-10-26T03:57:47.175Z,67.39
2022-10-26T04:00:16.197Z,67.39
2022-10-26T04:02:46.928Z,67.40
2022-10-26T04:05:14.291Z,67.65
2022-10-26T04:07:40.622Z,67.45
2022-10-26T04:10:07.441Z,67.37
2022-10-26T04:12:37.255Z,67.26
2022-10-26T04:15:06.574Z,67.26
2022-10-26T04:17:32.976Z,67.14
2022-10-26T04:19:59.415Z,66.99
2022-10-26T04:22:25.762Z,67.14
2022-10-26T04:24:52.087Z,67.05
2022-10-26T04:27:18.578Z,67.25
2022-10-26T04:29:44.914Z,67.08
2022-10-26T04:32:11.248Z,67.15
2022-10-26T04:34:37.640Z,66.94
2022-10-26T04:37:04.043Z,67.09
2022-10-26T04:39:30.473Z,66.97
2022-10-26T04:41:56.874Z,67.01
2022-10-26T04:44:23.258Z,66.84
2022-10-26T04:46:49.579Z,66.94
2022-10-26T04:49:16.050Z,66.88
2022-10-26T04:51:42.422Z,67.09
2022-10-26T04:54:08.915Z,67.13
2022-10-26T04:56:36.066Z,67.03
2022-10-26T04:59:02.901Z,66.92
2022-10-26T05:01:31.139Z,66.86
2022-10-26T05:03:57.706Z,66.71
2022-10-26T05:06:24.131Z,66.91
2022-10-26T05:08:50.538Z,66.73
2022-10-26T05:11:17.063Z,66.85
2022-10-26T05:13:43.414Z,66.83
2022-10-26T05:16:09.762Z,66.68
2022-10-26T05:18:36.142Z,66.66
2022-10-26T05:21:02.623Z,66.48
2022-10-26T05:23:28.995Z,66.60
2022-10-26T05:25:56.586Z,66.57
2022-10-26T05:28:23.122Z,66.58
2022-10-26T05:30:49.463Z,66.54
2022-10-26T05:33:15.907Z,66.54
2022-10-26T05:35:42.503Z,66.25
2022-10-26T05:38:17.010Z,66.22
2022-10-26T05:40:50.899Z,66.26
2022-10-26T05:43:18.087Z,66.27
2022-10-26T05:45:44.554Z,66.35
2022-10-26T05:48:10.910Z,66.46
2022-10-26T05:50:37.459Z,66.63
2022-10-26T05:53:04.056Z,66.63
2022-10-26T05:55:30.882Z,66.89
2022-10-26T05:57:58.046Z,66.63
2022-10-26T06:00:26.664Z,66.44
2022-10-26T06:03:20.005Z,66.54
2022-10-26T06:06:01.641Z,66.38
2022-10-26T06:08:30.599Z,66.65
2022-10-26T06:10:59.382Z,66.70
2022-10-26T06:13:26.116Z,66.72
2022-10-26T06:16:31.010Z,66.64
2022-10-26T06:19:21.967Z,66.85
2022-10-26T06:22:24.064Z,66.77
2022-10-26T06:25:02.353Z,66.90
2022-10-26T06:27:44.083Z,66.74
2022-10-26T06:30:12.048Z,67.14
2022-10-26T06:32:45.305Z,67.11
2022-10-26T06:35:14.909Z,67.03
2022-10-26T06:37:44.313Z,67.12
2022-10-26T06:40:14.507Z,67.17
2022-10-26T06:42:41.212Z,67.21
2022-10-26T06:45:12.518Z,67.25
2022-10-26T06:48:00.597Z,67.10
2022-10-26T06:50:38.476Z,66.94
2022-10-26T06:53:23.730Z,66.86
2022-10-26T06:55:50.775Z,67.02
2022-10-26T06:58:23.794Z,66.85
2022-10-26T07:00:52.161Z,66.90
2022-10-26T07:03:18.530Z,66.57
2022-10-26T07:05:46.087Z,66.65
2022-10-26T07:08:12.644Z,66.68
2022-10-26T07:10:39.502Z,66.62
2022-10-26T07:13:06.578Z,66.44
2022-10-26T07:15:34.350Z,66.41
2022-10-26T07:18:01.226Z,66.53
2022-10-26T07:20:27.766Z,66.21
2022-10-26T07:22:55.599Z,66.14
2022-10-26T07:25:23.261Z,66.03
2022-10-26T07:27:49.849Z,65.62
2022-10-26T07:30:16.495Z,65.86
2022-10-26T07:32:42.984Z,65.56
2022-10-26T07:35:09.603Z,65.64
2022-10-26T07:37:36.077Z,65.26
2022-10-26T07:40:05.754Z,65.54
2022-10-26T07:42:33.641Z,65.28
2022-10-26T07:44:59.982Z,65.43
2022-10-26T07:47:26.332Z,64.93
2022-10-26T07:49:52.675Z,65.20
2022-10-26T07:52:19.014Z,65.25
2022-10-26T07:54:45.395Z,64.88
2022-10-26T07:57:11.770Z,64.58
2022-10-26T07:59:38.239Z,64.63
2022-10-26T08:02:04.654Z,64.41
2022-10-26T08:04:31.039Z,64.35
2022-10-26T08:06:57.517Z,64.52
2022-10-26T08:09:23.880Z,64.08
2022-10-26T08:11:50.231Z,63.72
2022-10-26T08:14:16.577Z,63.81
2022-10-26T08:16:42.978Z,64.24
2022-10-26T08:19:09.424Z,63.56
2022-10-26T08:21:39.505Z,63.65
2022-10-26T08:24:06.902Z,63.55
2022-10-26T08:26:33.270Z,63.00
2022-10-26T08:28:59.699Z,63.18
2022-10-26T08:31:26.048Z,62.89
2022-10-26T08:33:52.434Z,62.77
2022-10-26T08:36:23.924Z,62.89
2022-10-26T08:38:50.347Z,62.87
2022-10-26T08:41:16.740Z,62.62
2022-10-26T08:43:50.151Z,62.66
2022-10-26T08:46:21.836Z,62.67
2022-10-26T08:48:53.561Z,62.31
2022-10-26T08:51:25.325Z,62.23
2022-10-26T08:53:59.359Z,61.48
2022-10-26T08:56:44.894Z,61.61
2022-10-26T08:59:31.634Z,61.58
2022-10-26T09:01:58.108Z,61.30
2022-10-26T09:04:29.669Z,61.34
2022-10-26T09:07:19.250Z,61.38
2022-10-26T09:09:57.180Z,61.13
2022-10-26T09:12:55.440Z,61.15
2022-10-26T09:15:40.628Z,61.08
2022-10-26T09:18:24.654Z,61.13
2022-10-26T09:21:17.319Z,60.24
2022-10-26T09:24:06.750Z,60.29
2022-10-26T09:26:54.525Z,59.98
2022-10-26T09:29:27.513Z,59.35
2022-10-26T09:31:57.240Z,58.68
2022-10-26T09:34:31.256Z,58.63
2022-10-26T09:36:57.640Z,57.97
2022-10-26T09:39:30.917Z,57.93
2022-10-26T09:42:02.974Z,57.73
2022-10-26T09:44:36.479Z,57.90
2022-10-26T09:47:15.877Z,57.99
2022-10-26T09:49:58.654Z,57.61
2022-10-26T09:52:25.049Z,57.41
2022-10-26T09:54:51.454Z,56.88
2022-10-26T09:57:20.239Z,56.98
2022-10-26T09:59:47.958Z,56.42
2022-10-26T10:02:37.761Z,56.73
2022-10-26T10:08:22.047Z,56.61
2022-10-26T10:11:05.678Z,56.43
2022-10-26T10:13:36.940Z,56.10
2022-10-26T10:16:06.410Z,56.27
2022-10-26T10:18:33.864Z,56.01
2022-10-26T10:21:00.667Z,56.33
2022-10-26T10:23:30.502Z,56.95
2022-10-26T10:26:02.458Z,57.36
2022-10-26T10:28:29.584Z,57.52
2022-10-26T10:31:07.137Z,57.39
2022-10-26T10:33:41.304Z,57.63
2022-10-26T10:36:13.390Z,57.56
2022-10-26T10:38:42.514Z,57.08
2022-10-26T10:41:30.785Z,57.09
2022-10-26T10:44:09.021Z,56.58
2022-10-26T10:46:37.622Z,56.59
2022-10-26T10:49:06.797Z,56.55
2022-10-26T10:51:39.049Z,56.02
2022-10-26T10:54:17.797Z,55.94
2022-10-26T10:56:51.047Z,55.90
2022-10-26T10:59:45.632Z,55.88
2022-10-26T11:02:58.284Z,55.75
2022-10-26T11:05:44.093Z,55.37
2022-10-26T11:08:27.115Z,55.41
2022-10-26T11:11:19.160Z,55.49
2022-10-26T11:14:01.697Z,55.61
2022-10-26T11:16:53.846Z,55.46
2022-10-26T11:19:51.560Z,55.35
2022-10-26T11:22:24.145Z,55.50
2022-10-26T11:24:58.255Z,55.29
2022-10-26T11:27:39.935Z,55.41
2022-10-26T11:30:15.303Z,55.45
2022-10-26T11:32:47.471Z,55.47
2022-10-26T11:35:20.258Z,55.09
2022-10-26T11:37:58.869Z,55.11
2022-10-26T11:40:47.189Z,54.94
2022-10-26T11:44:09.386Z,55.07
2022-10-26T11:46:41.723Z,54.68
2022-10-26T11:49:19.858Z,54.70
2022-10-26T11:51:59.191Z,54.69
2022-10-26T11:54:37.187Z,54.49
2022-10-26T11:57:05.191Z,54.00
2022-10-26T11:59:37.237Z,53.97
2022-10-26T12:02:15.287Z,53.87
2022-10-26T12:04:44.690Z,53.88
2022-10-26T12:07:20.104Z,54.26
2022-10-26T12:09:46.455Z,53.49
2022-10-26T12:12:33.808Z,53.66
2022-10-26T12:15:30.916Z,53.28
2022-10-26T12:18:50.206Z,53.36
2022-10-26T12:21:18.766Z,52.57
2022-10-26T12:24:02.889Z,52.88
2022-10-26T12:26:29.172Z,52.65
2022-10-26T12:29:01.478Z,52.95
2022-10-26T12:31:37.233Z,52.96
2022-10-26T12:34:14.242Z,53.89
2022-10-26T12:37:06.728Z,53.58
2022-10-26T12:39:38.060Z,53.21
2022-10-26T12:42:04.323Z,52.77
2022-10-26T12:44:45.607Z,53.50
2022-10-26T12:47:30.211Z,52.84
2022-10-26T12:50:01.314Z,52.86
2022-10-26T12:52:33.478Z,52.65
2022-10-26T12:55:11.961Z,52.28
2022-10-26T12:57:56.495Z,52.63
2022-10-26T13:00:26.481Z,52.25
2022-10-26T13:02:55.652Z,51.91
2022-10-26T13:06:01.427Z,51.97
2022-10-26T13:08:28.407Z,51.56
2022-10-26T13:11:32.088Z,51.59
2022-10-26T13:14:02.914Z,51.74
2022-10-26T13:16:30.012Z,51.61
2022-10-26T13:18:57.863Z,51.25
2022-10-26T13:21:26.248Z,50.86
2022-10-26T13:23:56.710Z,50.92
2022-10-26T13:26:30.269Z,50.65
2022-10-26T13:29:03.921Z,51.03
2022-10-26T13:31:31.248Z,50.27
2022-10-26T13:34:01.091Z,50.64
2022-10-26T13:36:33.821Z,50.43
2022-10-26T13:39:06.386Z,50.60
2022-10-26T13:41:38.796Z,50.72
2022-10-26T13:44:18.323Z,50.81
2022-10-26T13:46:46.718Z,50.49
2022-10-26T13:49:27.631Z,50.64
2022-10-26T13:51:54.562Z,50.92
2022-10-26T13:54:30.141Z,51.03
2022-10-26T13:57:27.791Z,51.29
2022-10-26T14:00:00.058Z,51.34
2022-10-26T14:02:32.775Z,50.95
2022-10-26T14:05:05.295Z,50.91
2022-10-26T14:07:37.554Z,50.74
2022-10-26T14:10:04.728Z,50.76
2022-10-26T14:12:32.409Z,51.39
2022-10-26T14:15:06.916Z,51.02
2022-10-26T14:17:33.612Z,51.06
2022-10-26T14:20:00.649Z,51.02
2022-10-26T14:22:29.965Z,51.40
2022-10-26T14:24:58.800Z,51.11
2022-10-26T14:27:31.001Z,51.80
2022-10-26T14:30:21.198Z,51.22
2022-10-26T14:32:44.134Z,51.37
2022-10-26T14:35:14.406Z,51.12
2022-10-26T14:37:50.221Z,51.62
2022-10-26T14:40:18.087Z,52.04
2022-10-26T14:42:50.328Z,51.42
2022-10-26T14:45:48.049Z,51.50
2022-10-26T14:48:33.071Z,51.43
2022-10-26T14:51:16.899Z,51.48
2022-10-26T14:53:49.319Z,51.78
2022-10-26T14:56:35.777Z,52.01
2022-10-26T14:59:20.462Z,52.45
2022-10-26T15:02:03.287Z,52.20
2022-10-26T15:04:37.284Z,52.38
2022-10-26T15:07:12.753Z,52.72
2022-10-26T15:09:42.011Z,52.80
2022-10-26T15:12:38.134Z,52.62
2022-10-26T15:15:17.600Z,52.87
2022-10-26T15:17:51.544Z,52.99
2022-10-26T15:22:53.474Z,53.20
2022-10-26T15:25:27.241Z,52.87
2022-10-26T15:27:54.370Z,53.26
2022-10-26T15:30:26.648Z,53.26
2022-10-26T15:32:56.283Z,53.67
2022-10-26T15:35:26.251Z,53.75
2022-10-26T15:37:53.946Z,53.61
2022-10-26T15:40:22.205Z,54.01
2022-10-26T15:42:53.442Z,53.88
2022-10-26T15:45:32.815Z,54.26
2022-10-26T15:48:15.465Z,54.16
2022-10-26T15:50:41.808Z,54.56
2022-10-26T15:53:15.399Z,54.57
2022-10-26T15:55:41.812Z,54.63
2022-10-26T15:58:11.051Z,54.74
2022-10-26T16:00:37.647Z,54.92
2022-10-26T16:03:03.984Z,55.01
2022-10-26T16:07:58.940Z,55.33
2022-10-26T16:10:25.552Z,55.56
2022-10-26T16:12:52.029Z,55.81
2022-10-26T16:15:24.338Z,55.79
2022-10-26T16:17:51.249Z,56.04
2022-10-26T16:20:23.099Z,55.90
2022-10-26T16:22:51.525Z,56.36
2022-10-26T16:25:23.571Z,56.34
2022-10-26T16:27:50.577Z,56.30
2022-10-26T16:30:18.793Z,56.52
2022-10-26T16:32:45.468Z,56.83
2022-10-26T16:35:12.796Z,57.14
2022-10-26T16:37:39.322Z,57.34
2022-10-26T16:40:06.815Z,57.33
2022-10-26T16:42:33.422Z,57.59
2022-10-26T16:45:02.634Z,57.49
2022-10-26T16:47:32.093Z,57.83
2022-10-26T16:49:58.516Z,57.97
2022-10-26T16:52:24.916Z,58.00
2022-10-26T16:54:51.272Z,58.04
2022-10-26T16:57:17.675Z,58.42
2022-10-26T16:59:44.140Z,58.35
2022-10-26T17:02:14.325Z,58.24
2022-10-26T17:04:40.823Z,58.62
2022-10-26T17:07:07.180Z,58.49
2022-10-26T17:09:33.552Z,59.00
2022-10-26T17:12:02.177Z,58.62
2022-10-26T17:14:28.868Z,59.01
2022-10-26T17:16:55.342Z,59.11
2022-10-26T17:19:21.754Z,59.06
2022-10-26T17:21:48.123Z,59.34
2022-10-26T17:24:14.556Z,59.38
2022-10-26T17:26:41.622Z,59.70
2022-10-26T17:29:07.937Z,59.44
2022-10-26T17:31:34.323Z,59.77
2022-10-26T17:34:00.705Z,59.82
2022-10-26T17:36:27.395Z,59.88
2022-10-26T17:38:55.210Z,59.61
2022-10-26T17:41:22.259Z,59.99
2022-10-26T17:43:49.471Z,60.13
2022-10-26T17:46:18.221Z,60.40
2022-10-26T17:48:45.398Z,60.58
2022-10-26T17:51:19.020Z,60.43
2022-10-26T17:53:49.370Z,60.83
2022-10-26T17:56:24.056Z,60.71
2022-10-26T17:58:55.598Z,61.18
2022-10-26T18:01:22.576Z,61.40
2022-10-26T18:03:49.335Z,61.36
2022-10-26T18:06:17.155Z,61.40
2022-10-26T18:08:45.464Z,61.29
2022-10-26T18:11:25.311Z,61.62
2022-10-26T18:13:56.804Z,61.74
2022-10-26T18:16:25.263Z,61.87
2022-10-26T18:19:01.460Z,61.55
2022-10-26T18:21:30.443Z,61.99
2022-10-26T18:23:56.804Z,62.07
2022-10-26T18:26:26.441Z,62.34
2022-10-26T18:28:53.114Z,62.21
2022-10-26T18:31:22.608Z,62.26
2022-10-26T18:33:49.391Z,62.52
2022-10-26T18:36:18.242Z,62.16
2022-10-26T18:38:47.028Z,62.26
2022-10-26T18:41:15.170Z,62.73
2022-10-26T18:43:43.896Z,62.73
2022-10-26T18:46:12.629Z,62.61
2022-10-26T18:48:39.932Z,62.70
2022-10-26T18:51:14.568Z,63.03
2022-10-26T18:53:42.554Z,63.28
2022-10-26T18:56:11.207Z,63.24
2022-10-26T18:58:41.087Z,62.88
2022-10-26T19:01:11.932Z,63.44
2022-10-26T19:03:39.654Z,63.61
2022-10-26T19:06:20.882Z,63.54
2022-10-26T19:08:47.747Z,63.92
2022-10-26T19:11:17.257Z,63.68
2022-10-26T19:13:44.016Z,63.97
2022-10-26T19:16:17.406Z,63.57
2022-10-26T19:18:56.151Z,63.50
2022-10-26T19:21:23.749Z,63.90
2022-10-26T19:23:52.518Z,63.80
2022-10-26T19:26:21.656Z,63.66
2022-10-26T19:28:55.044Z,63.88
2022-10-26T19:31:26.214Z,63.94
2022-10-26T19:33:56.330Z,64.12
2022-10-26T19:36:22.948Z,64.07
2022-10-26T19:38:49.446Z,63.82
2022-10-26T19:41:16.936Z,64.27
2022-10-26T19:43:43.471Z,64.28
2022-10-26T19:46:14.927Z,64.30
2022-10-26T19:48:41.831Z,64.50
2022-10-26T19:51:08.769Z,64.40
2022-10-26T19:53:35.774Z,64.34
2022-10-26T19:56:02.503Z,64.82
2022-10-26T19:58:30.896Z,64.40
2022-10-26T20:00:59.203Z,64.49
2022-10-26T20:03:26.519Z,64.66
2022-10-26T20:05:56.656Z,64.40
2022-10-26T20:08:23.807Z,64.69
2022-10-26T20:10:53.350Z,64.87
2022-10-26T20:13:20.017Z,65.08
2022-10-26T20:15:46.383Z,65.53
2022-10-26T20:18:13.562Z,65.32
2022-10-26T20:20:39.881Z,65.55
2022-10-26T20:23:07.614Z,65.63
2022-10-26T20:25:38.272Z,65.47
2022-10-26T20:28:06.129Z,65.71
2022-10-26T20:30:35.158Z,65.84
2022-10-26T20:33:02.127Z,65.72
2022-10-26T20:35:28.505Z,65.85
2022-10-26T20:37:56.186Z,65.83
2022-10-26T20:40:23.900Z,66.06
2022-10-26T20:42:52.163Z,66.24
2022-10-26T20:45:27.507Z,65.94
2022-10-26T20:47:57.022Z,66.38
2022-10-26T20:50:25.156Z,65.94
2022-10-26T20:53:02.482Z,65.91
2022-10-26T20:55:41.021Z,65.97
2022-10-26T20:58:45.109Z,66.35
2022-10-26T21:01:25.302Z,66.11
2022-10-26T21:03:53.430Z,66.42
2022-10-26T21:06:20.129Z,66.49
2022-10-26T21:08:49.613Z,66.38
2022-10-26T21:11:17.143Z,66.72
2022-10-26T21:13:45.719Z,66.87
2022-10-26T21:16:12.415Z,66.56
2022-10-26T21:18:39.183Z,67.01
2022-10-26T21:21:05.817Z,67.01
2022-10-26T21:23:33.589Z,66.90
2022-10-26T21:26:00.625Z,67.08
2022-10-26T21:28:33.628Z,66.75
2022-10-26T21:31:04.096Z,66.76
2022-10-26T21:33:33.634Z,67.21
2022-10-26T21:36:01.081Z,67.27
2022-10-26T21:38:28.827Z,66.93
2022-10-26T21:41:26.792Z,67.03
2022-10-26T21:44:03.290Z,66.91
2022-10-26T21:46:38.156Z,66.77
2022-10-26T21:49:05.115Z,66.98
2022-10-26T21:51:31.479Z,67.01
2022-10-26T21:53:58.346Z,67.13
2022-10-26T21:56:24.743Z,67.07
2022-10-26T21:58:51.068Z,67.22
2022-10-26T22:01:19.851Z,66.78
2022-10-26T22:03:47.686Z,66.49
2022-10-26T22:06:16.595Z,66.64
2022-10-26T22:08:43.835Z,66.63
2022-10-26T22:11:15.191Z,66.59
2022-10-26T22:13:42.891Z,67.29
2022-10-26T22:16:15.441Z,66.93
2022-10-26T22:18:45.991Z,66.79
2022-10-26T22:21:13.789Z,67.07
2022-10-26T22:23:42.428Z,67.26
2022-10-26T22:26:11.719Z,66.61
2022-10-26T22:28:42.465Z,67.02
2022-10-26T22:31:15.540Z,67.09
2022-10-26T22:33:42.516Z,66.98
2022-10-26T22:36:11.833Z,66.50
2022-10-26T22:38:38.513Z,66.98
2022-10-26T22:41:05.681Z,67.13
2022-10-26T22:43:32.403Z,66.96
2022-10-26T22:46:07.890Z,66.56
2022-10-26T22:48:35.005Z,66.58
2022-10-26T22:51:09.151Z,66.43
2022-10-26T22:53:36.025Z,66.51
2022-10-26T22:56:04.110Z,66.31
2022-10-26T22:58:30.888Z,66.50
2022-10-26T23:01:14.986Z,66.37
2022-10-26T23:03:41.487Z,67.01
2022-10-26T23:06:12.485Z,67.07
2022-10-26T23:08:39.406Z,67.49
2022-10-26T23:11:08.895Z,67.07
2022-10-26T23:13:35.343Z,67.38
2022-10-26T23:16:20.155Z,67.37
2022-10-26T23:18:47.488Z,67.60
2022-10-26T23:21:14.941Z,67.95
2022-10-26T23:23:41.654Z,67.50
2022-10-26T23:26:12.287Z,67.46
2022-10-26T23:28:39.430Z,67.60
2022-10-26T23:31:06.588Z,67.43
2022-10-26T23:33:33.347Z,67.42
2022-10-26T23:36:01.121Z,67.52
2022-10-26T23:38:27.607Z,67.70
2022-10-26T23:40:59.418Z,67.73
2022-10-26T23:43:27.379Z,67.95
2022-10-26T23:45:54.945Z,68.08
2022-10-26T23:48:21.535Z,68.26
2022-10-26T23:50:49.633Z,68.19
2022-10-26T23:53:17.879Z,67.89
2022-10-26T23:55:44.865Z,68.12
2022-10-26T23:58:12.203Z,67.91
